createdAt,value
2022-12-26T00:02:00.328Z,6.40
2022-12-26T00:04:49.646Z,6.40
2022-12-26T00:07:19.912Z,6.40
2022-12-26T00:09:49.017Z,6.40
2022-12-26T00:12:18.117Z,6.40
2022-12-26T00:14:47.162Z,6.50
2022-12-26T00:17:16.031Z,6.50
2022-12-26T00:19:46.592Z,6.60
2022-12-26T00:22:16.148Z,6.60
2022-12-26T00:24:45.257Z,6.60
2022-12-26T00:27:14.319Z,6.60
2022-12-26T00:29:43.340Z,6.60
2022-12-26T00:32:12.404Z,6.50
2022-12-26T00:34:41.961Z,6.60
2022-12-26T00:37:12.700Z,6.60
2022-12-26T00:39:41.724Z,6.50
2022-12-26T00:42:10.768Z,6.60
2022-12-26T00:44:39.630Z,6.60
2022-12-26T00:47:08.623Z,6.60
2022-12-26T00:50:11.786Z,6.60
2022-12-26T00:52:28.349Z,6.60
2022-12-26T00:54:57.067Z,6.70
2022-12-26T00:57:27.539Z,6.70
2022-12-26T00:59:56.363Z,6.70
2022-12-26T01:02:40.440Z,6.70
2022-12-26T01:05:11.421Z,6.70
2022-12-26T01:08:20.282Z,6.70
2022-12-26T01:10:31.792Z,6.80
2022-12-26T01:13:00.793Z,6.70
2022-12-26T01:15:30.523Z,6.70
2022-12-26T01:18:00.573Z,6.70
2022-12-26T01:20:29.679Z,6.70
2022-12-26T01:23:00.345Z,6.80
2022-12-26T01:25:29.328Z,6.80
2022-12-26T01:27:58.394Z,6.80
2022-12-26T01:30:27.502Z,6.80
2022-12-26T01:32:56.980Z,6.80
2022-12-26T01:35:26.081Z,6.80
2022-12-26T01:37:56.207Z,6.80
2022-12-26T01:40:26.953Z,6.80
2022-12-26T01:42:56.020Z,6.80
2022-12-26T01:45:28.514Z,6.80
2022-12-26T01:48:04.061Z,6.90
2022-12-26T01:50:43.836Z,6.90
2022-12-26T01:53:18.747Z,6.90
2022-12-26T01:55:52.953Z,6.80
2022-12-26T01:58:28.657Z,6.80
2022-12-26T02:00:57.939Z,6.80
2022-12-26T02:03:44.155Z,6.80
2022-12-26T02:06:14.983Z,6.80
2022-12-26T02:08:45.561Z,6.80
2022-12-26T02:11:19.307Z,6.80
2022-12-26T02:13:48.604Z,6.80
2022-12-26T02:16:19.735Z,6.80
2022-12-26T02:18:49.141Z,6.80
2022-12-26T02:21:48.064Z,6.70
2022-12-26T02:24:43.572Z,6.70
2022-12-26T02:27:23.883Z,6.80
2022-12-26T02:30:37.889Z,6.90
2022-12-26T02:33:41.384Z,6.80
2022-12-26T02:36:30.646Z,6.80
2022-12-26T02:39:43.407Z,6.80
2022-12-26T02:42:13.557Z,6.80
2022-12-26T02:45:06.323Z,6.80
2022-12-26T02:47:43.611Z,6.80
2022-12-26T02:50:39.063Z,6.80
2022-12-26T02:53:31.690Z,6.80
2022-12-26T02:56:21.506Z,6.80
2022-12-26T02:59:55.053Z,6.90
2022-12-26T03:02:42.368Z,6.90
2022-12-26T03:05:37.459Z,6.80
2022-12-26T03:08:36.195Z,6.80
2022-12-26T03:11:23.074Z,6.90
2022-12-26T03:13:53.460Z,6.90
2022-12-26T03:16:42.958Z,6.90
2022-12-26T03:19:14.330Z,6.90
2022-12-26T03:21:47.839Z,7.00
2022-12-26T03:24:18.750Z,7.00
2022-12-26T03:26:52.456Z,7.00
2022-12-26T03:29:40.895Z,7.00
2022-12-26T03:32:12.437Z,7.10
2022-12-26T03:34:44.345Z,7.00
2022-12-26T03:37:48.775Z,7.10
2022-12-26T03:40:50.479Z,7.10
2022-12-26T03:43:52.583Z,7.10
2022-12-26T03:46:44.720Z,7.20
2022-12-26T03:49:39.369Z,7.10
2022-12-26T03:52:33.163Z,7.00
2022-12-26T03:55:30.801Z,7.10
2022-12-26T03:58:22.920Z,7.20
2022-12-26T04:01:11.887Z,7.20
2022-12-26T04:04:01.357Z,7.30
2022-12-26T04:06:52.366Z,7.20
2022-12-26T04:09:43.770Z,7.30
2022-12-26T04:12:37.092Z,7.20
2022-12-26T04:15:30.704Z,7.30
2022-12-26T04:18:20.921Z,7.30
2022-12-26T04:20:58.643Z,7.30
2022-12-26T04:23:52.401Z,7.30
2022-12-26T04:26:44.880Z,7.30
2022-12-26T04:29:33.100Z,7.30
2022-12-26T04:32:23.496Z,7.30
2022-12-26T04:35:13.513Z,7.30
2022-12-26T04:38:02.984Z,7.40
2022-12-26T04:40:56.147Z,7.40
2022-12-26T04:43:50.052Z,7.40
2022-12-26T04:46:23.598Z,7.40
2022-12-26T04:49:11.668Z,7.40
2022-12-26T04:51:40.853Z,7.50
2022-12-26T04:54:10.123Z,7.40
2022-12-26T04:56:39.757Z,7.40
2022-12-26T04:59:08.857Z,7.40
2022-12-26T05:01:56.796Z,7.40
2022-12-26T05:04:42.972Z,7.30
2022-12-26T05:07:35.424Z,7.30
2022-12-26T05:10:06.047Z,7.40
2022-12-26T05:12:35.130Z,7.40
2022-12-26T05:15:04.955Z,7.30
2022-12-26T05:17:52.644Z,7.40
2022-12-26T05:20:38.540Z,7.40
2022-12-26T05:23:36.250Z,7.40
2022-12-26T05:26:24.144Z,7.40
2022-12-26T05:28:58.344Z,7.40
2022-12-26T05:31:34.689Z,7.50
2022-12-26T05:34:08.481Z,7.50
2022-12-26T05:36:40.117Z,7.50
2022-12-26T05:39:10.068Z,7.50
2022-12-26T05:41:40.621Z,7.50
2022-12-26T05:44:10.401Z,7.50
2022-12-26T05:46:40.293Z,7.50
2022-12-26T05:49:11.637Z,7.50
2022-12-26T05:51:40.572Z,7.50
2022-12-26T05:54:09.599Z,7.50
2022-12-26T05:56:38.540Z,7.50
2022-12-26T05:59:08.623Z,7.50
2022-12-26T06:01:37.804Z,7.50
2022-12-26T06:04:06.853Z,7.50
2022-12-26T06:06:37.402Z,7.60
2022-12-26T06:09:06.498Z,7.60
2022-12-26T06:11:35.551Z,7.70
2022-12-26T06:14:04.855Z,7.70
2022-12-26T06:16:33.956Z,7.70
2022-12-26T06:19:03.052Z,7.70
2022-12-26T06:21:32.053Z,7.70
2022-12-26T06:24:03.152Z,7.70
2022-12-26T06:26:32.370Z,7.80
2022-12-26T06:29:01.429Z,7.70
2022-12-26T06:31:30.551Z,7.80
2022-12-26T06:34:01.502Z,7.80
2022-12-26T06:36:31.325Z,7.80
2022-12-26T06:39:02.112Z,7.80
2022-12-26T06:41:30.822Z,7.80
2022-12-26T06:44:00.141Z,7.90
2022-12-26T06:46:29.225Z,7.90
2022-12-26T06:48:58.333Z,7.90
2022-12-26T06:51:29.119Z,8.00
2022-12-26T06:53:58.208Z,8.00
2022-12-26T06:56:29.304Z,8.00
2022-12-26T06:58:59.830Z,8.10
2022-12-26T07:01:30.389Z,8.10
2022-12-26T07:04:00.066Z,8.10
2022-12-26T07:06:31.363Z,8.10
2022-12-26T07:09:03.393Z,8.20
2022-12-26T07:11:35.564Z,8.20
2022-12-26T07:14:05.419Z,8.30
2022-12-26T07:16:36.313Z,8.20
2022-12-26T07:19:06.249Z,8.20
2022-12-26T07:21:40.324Z,8.20
2022-12-26T07:24:16.520Z,8.30
2022-12-26T07:26:47.674Z,8.30
2022-12-26T07:29:17.126Z,8.30
2022-12-26T07:31:46.421Z,8.30
2022-12-26T07:34:15.596Z,8.30
2022-12-26T07:36:44.684Z,8.30
2022-12-26T07:39:15.476Z,8.40
2022-12-26T07:41:59.064Z,8.40
2022-12-26T07:44:31.385Z,8.40
2022-12-26T07:47:01.727Z,8.40
2022-12-26T07:49:30.849Z,8.40
2022-12-26T07:51:59.988Z,8.50
2022-12-26T07:54:30.143Z,8.50
2022-12-26T07:57:21.894Z,8.50
2022-12-26T07:59:53.260Z,8.60
2022-12-26T08:02:24.726Z,8.60
2022-12-26T08:04:53.955Z,8.60
2022-12-26T08:07:23.079Z,8.70
2022-12-26T08:09:52.281Z,8.70
2022-12-26T08:12:24.591Z,8.70
2022-12-26T08:14:55.261Z,8.60
2022-12-26T08:17:24.338Z,8.60
2022-12-26T08:19:53.053Z,8.60
2022-12-26T08:22:22.082Z,8.60
2022-12-26T08:24:51.116Z,8.60
2022-12-26T08:27:20.241Z,8.60
2022-12-26T08:29:49.588Z,8.70
2022-12-26T08:32:20.244Z,8.70
2022-12-26T08:34:49.491Z,8.70
2022-12-26T08:37:18.559Z,8.80
2022-12-26T08:39:47.637Z,8.90
2022-12-26T08:42:16.689Z,8.90
2022-12-26T08:44:45.737Z,9.00
2022-12-26T08:47:14.816Z,9.10
2022-12-26T08:49:45.681Z,9.10
2022-12-26T08:52:14.710Z,9.30
2022-12-26T08:54:43.807Z,9.30
2022-12-26T08:57:14.451Z,9.30
2022-12-26T08:59:43.523Z,9.40
2022-12-26T09:02:12.976Z,9.40
2022-12-26T09:04:42.164Z,9.40
2022-12-26T09:07:12.606Z,9.40
2022-12-26T09:09:41.512Z,9.50
2022-12-26T09:12:10.293Z,9.50
2022-12-26T09:14:39.159Z,9.50
2022-12-26T09:17:08.223Z,9.60
2022-12-26T09:19:38.248Z,9.60
2022-12-26T09:22:24.653Z,9.70
2022-12-26T09:24:55.250Z,9.90
2022-12-26T09:27:24.475Z,10.00
2022-12-26T09:29:53.656Z,10.10
2022-12-26T09:32:22.677Z,10.20
2022-12-26T09:34:51.711Z,10.30
2022-12-26T09:37:20.714Z,10.40
2022-12-26T09:39:50.436Z,10.50
2022-12-26T09:42:30.021Z,10.60
2022-12-26T09:45:05.767Z,10.60
2022-12-26T09:47:36.759Z,10.70
2022-12-26T09:50:12.578Z,10.80
2022-12-26T09:52:46.559Z,10.90
2022-12-26T09:55:29.603Z,11.00
2022-12-26T09:58:05.717Z,11.10
2022-12-26T10:00:40.620Z,11.10
2022-12-26T10:03:12.955Z,11.20
2022-12-26T10:05:47.691Z,11.10
2022-12-26T10:08:27.998Z,11.20
2022-12-26T10:11:02.762Z,11.20
2022-12-26T10:13:39.990Z,11.20
2022-12-26T10:16:17.699Z,11.30
2022-12-26T10:19:03.659Z,11.40
2022-12-26T10:21:47.318Z,11.40
2022-12-26T10:24:19.731Z,11.30
2022-12-26T10:26:51.704Z,11.20
2022-12-26T10:29:26.977Z,11.00
2022-12-26T10:32:00.146Z,11.00
2022-12-26T10:34:33.788Z,11.00
2022-12-26T10:37:06.968Z,11.00
2022-12-26T10:39:40.905Z,11.10
2022-12-26T10:42:17.252Z,11.10
2022-12-26T10:44:47.935Z,11.10
2022-12-26T10:47:25.090Z,11.10
2022-12-26T10:49:54.543Z,11.00
2022-12-26T10:52:30.028Z,11.00
2022-12-26T10:55:28.896Z,11.00
2022-12-26T10:57:54.446Z,11.00
2022-12-26T11:00:27.469Z,11.00
2022-12-26T11:03:07.702Z,11.00
2022-12-26T11:08:34.089Z,11.00
2022-12-26T11:11:08.600Z,11.00
2022-12-26T11:13:41.907Z,11.10
2022-12-26T11:16:12.113Z,11.10
2022-12-26T11:18:49.250Z,11.10
2022-12-26T11:21:23.962Z,11.10
2022-12-26T11:23:56.046Z,11.10
2022-12-26T11:26:27.018Z,11.10
2022-12-26T11:29:18.133Z,11.10
2022-12-26T11:31:58.004Z,11.00
2022-12-26T11:34:32.738Z,11.00
2022-12-26T11:37:02.317Z,11.10
2022-12-26T11:39:34.376Z,11.10
2022-12-26T11:42:11.432Z,11.00
2022-12-26T11:44:45.448Z,10.90
2022-12-26T11:47:19.164Z,10.90
2022-12-26T11:49:55.716Z,10.80
2022-12-26T11:52:38.006Z,10.70
2022-12-26T11:55:30.894Z,10.60
2022-12-26T11:58:01.972Z,10.70
2022-12-26T12:00:31.443Z,10.60
2022-12-26T12:03:02.565Z,10.60
2022-12-26T12:05:45.326Z,10.60
2022-12-26T12:08:30.388Z,10.50
2022-12-26T12:11:16.254Z,10.50
2022-12-26T12:14:04.640Z,10.50
2022-12-26T12:16:46.343Z,10.50
2022-12-26T12:19:50.579Z,10.50
2022-12-26T12:22:45.010Z,10.50
2022-12-26T12:25:29.479Z,10.50
2022-12-26T12:28:05.699Z,10.50
2022-12-26T12:30:44.762Z,10.40
2022-12-26T12:33:33.479Z,10.50
2022-12-26T12:36:10.274Z,10.40
2022-12-26T12:38:56.712Z,10.40
2022-12-26T12:41:55.295Z,10.40
2022-12-26T12:44:35.863Z,10.50
2022-12-26T12:47:14.816Z,10.50
2022-12-26T12:49:56.234Z,10.60
2022-12-26T12:52:41.924Z,10.50
2022-12-26T12:55:42.585Z,10.60
2022-12-26T12:58:23.294Z,10.50
2022-12-26T13:00:56.251Z,10.50
2022-12-26T13:03:32.068Z,10.60
2022-12-26T13:06:07.656Z,10.60
2022-12-26T13:08:41.947Z,10.60
2022-12-26T13:11:19.056Z,10.60
2022-12-26T13:13:54.102Z,10.60
2022-12-26T13:16:27.843Z,10.60
2022-12-26T13:19:01.525Z,10.60
2022-12-26T13:21:33.471Z,10.60
2022-12-26T13:24:23.302Z,10.60
2022-12-26T13:27:00.558Z,10.60
2022-12-26T13:29:40.344Z,10.60
2022-12-26T13:32:20.957Z,10.60
2022-12-26T13:34:50.425Z,10.50
2022-12-26T13:37:57.281Z,10.50
2022-12-26T13:40:30.314Z,10.50
2022-12-26T13:43:22.065Z,10.50
2022-12-26T13:45:54.107Z,10.50
2022-12-26T13:48:58.119Z,10.50
2022-12-26T13:51:49.616Z,10.50
2022-12-26T13:54:19.931Z,10.50
2022-12-26T13:57:28.653Z,10.50
2022-12-26T14:00:23.399Z,10.50
2022-12-26T14:03:23.834Z,10.50
2022-12-26T14:06:13.772Z,10.50
2022-12-26T14:08:55.370Z,10.50
2022-12-26T14:11:42.328Z,10.50
2022-12-26T14:14:27.441Z,10.50
2022-12-26T14:17:07.444Z,10.50
2022-12-26T14:19:44.996Z,10.50
2022-12-26T14:22:23.113Z,10.50
2022-12-26T14:25:03.971Z,10.50
2022-12-26T14:27:40.145Z,10.60
2022-12-26T14:30:22.424Z,10.60
2022-12-26T14:33:07.904Z,10.50
2022-12-26T14:35:43.312Z,10.50
2022-12-26T14:38:26.219Z,10.50
2022-12-26T14:41:02.252Z,10.50
2022-12-26T14:43:34.507Z,10.50
2022-12-26T14:46:05.794Z,10.50
2022-12-26T14:48:52.276Z,10.50
2022-12-26T14:51:40.213Z,10.50
2022-12-26T14:54:51.333Z,10.50
2022-12-26T14:57:47.248Z,10.40
2022-12-26T15:00:33.509Z,10.30
2022-12-26T15:03:44.614Z,10.30
2022-12-26T15:06:54.984Z,10.30
2022-12-26T15:10:03.058Z,10.20
2022-12-26T15:13:08.493Z,10.30
2022-12-26T15:15:56.337Z,10.20
2022-12-26T15:18:52.100Z,10.10
2022-12-26T15:21:59.977Z,10.10
2022-12-26T15:28:18.701Z,10.10
2022-12-26T15:31:08.113Z,10.10
2022-12-26T15:33:40.615Z,10.00
2022-12-26T15:36:22.782Z,10.10
2022-12-26T15:38:59.149Z,10.20
2022-12-26T15:41:40.522Z,10.10
2022-12-26T15:44:20.967Z,10.10
2022-12-26T15:47:03.954Z,10.10
2022-12-26T15:49:46.668Z,10.10
2022-12-26T15:52:24.292Z,10.00
2022-12-26T15:55:24.224Z,9.90
2022-12-26T15:58:01.897Z,9.90
2022-12-26T16:00:33.899Z,9.80
2022-12-26T16:03:25.350Z,9.90
2022-12-26T16:06:00.279Z,9.90
2022-12-26T16:09:07.093Z,9.80
2022-12-26T16:11:49.463Z,9.80
2022-12-26T16:14:30.474Z,9.70
2022-12-26T16:17:20.396Z,9.70
2022-12-26T16:19:51.155Z,9.70
2022-12-26T16:22:46.947Z,9.70
2022-12-26T16:25:19.758Z,9.70
2022-12-26T16:27:51.219Z,9.60
2022-12-26T16:30:23.915Z,9.60
2022-12-26T16:32:53.834Z,9.60
2022-12-26T16:35:25.179Z,9.50
2022-12-26T16:37:58.543Z,9.50
2022-12-26T16:40:31.382Z,9.50
2022-12-26T16:43:03.579Z,9.40
2022-12-26T16:45:36.251Z,9.40
2022-12-26T16:48:08.538Z,9.30
2022-12-26T16:50:47.388Z,9.30
2022-12-26T16:53:18.377Z,9.40
2022-12-26T16:55:49.416Z,9.40
2022-12-26T16:58:25.358Z,9.40
2022-12-26T17:01:17.241Z,9.40
2022-12-26T17:03:52.392Z,9.40
2022-12-26T17:06:27.877Z,9.40
2022-12-26T17:08:58.476Z,9.40
2022-12-26T17:11:31.212Z,9.40
2022-12-26T17:14:01.712Z,9.40
2022-12-26T17:16:34.304Z,9.50
2022-12-26T17:19:18.829Z,9.50
2022-12-26T17:22:22.872Z,9.60
2022-12-26T17:24:52.879Z,9.60
2022-12-26T17:27:24.663Z,9.50
2022-12-26T17:29:57.001Z,9.50
2022-12-26T17:32:35.228Z,9.50
2022-12-26T17:35:07.691Z,9.40
2022-12-26T17:37:37.047Z,9.40
2022-12-26T17:40:22.501Z,9.20
2022-12-26T17:42:53.621Z,9.20
2022-12-26T17:45:24.869Z,9.20
2022-12-26T17:47:56.863Z,9.10
2022-12-26T17:50:35.048Z,9.10
2022-12-26T17:53:06.363Z,9.10
2022-12-26T17:55:35.725Z,9.10
2022-12-26T17:58:04.863Z,9.00
2022-12-26T18:00:33.794Z,9.00
2022-12-26T18:03:04.528Z,8.90
2022-12-26T18:05:35.110Z,8.90
2022-12-26T18:08:04.969Z,8.80
2022-12-26T18:10:35.968Z,8.80
2022-12-26T18:13:04.999Z,8.70
2022-12-26T18:15:33.691Z,8.70
2022-12-26T18:18:04.725Z,8.70
2022-12-26T18:20:33.381Z,8.70
2022-12-26T18:23:02.068Z,8.70
2022-12-26T18:25:31.120Z,8.60
2022-12-26T18:28:00.983Z,8.60
2022-12-26T18:30:29.649Z,8.50
2022-12-26T18:32:58.928Z,8.60
2022-12-26T18:35:29.717Z,8.50
2022-12-26T18:37:58.746Z,8.50
2022-12-26T18:40:33.703Z,8.40
2022-12-26T18:43:02.978Z,8.50
2022-12-26T18:45:32.510Z,8.50
2022-12-26T18:48:02.024Z,8.40
2022-12-26T18:50:33.368Z,8.40
2022-12-26T18:53:02.469Z,8.40
2022-12-26T18:55:31.467Z,8.40
2022-12-26T18:58:00.177Z,8.30
2022-12-26T19:00:28.904Z,8.30
2022-12-26T19:02:57.654Z,8.30
2022-12-26T19:05:30.819Z,8.30
2022-12-26T19:08:02.800Z,8.30
2022-12-26T19:10:33.974Z,8.20
2022-12-26T19:13:06.209Z,8.20
2022-12-26T19:15:36.937Z,8.20
2022-12-26T19:18:06.766Z,8.20
2022-12-26T19:20:40.521Z,8.20
2022-12-26T19:23:13.866Z,8.30
2022-12-26T19:25:42.969Z,8.20
2022-12-26T19:28:11.951Z,8.20
2022-12-26T19:30:40.896Z,8.20
2022-12-26T19:33:09.623Z,8.30
2022-12-26T19:35:38.418Z,8.30
2022-12-26T19:38:07.229Z,8.40
2022-12-26T19:40:37.315Z,8.40
2022-12-26T19:43:06.064Z,8.50
2022-12-26T19:45:34.981Z,8.50
2022-12-26T19:48:03.763Z,8.50
2022-12-26T19:50:32.470Z,8.50
2022-12-26T19:53:01.485Z,8.50
2022-12-26T19:55:30.514Z,8.60
2022-12-26T19:58:01.186Z,8.50
2022-12-26T20:00:30.577Z,8.60
2022-12-26T20:02:59.369Z,8.50
2022-12-26T20:05:28.172Z,8.60
2022-12-26T20:07:56.825Z,8.60
2022-12-26T20:10:25.576Z,8.60
2022-12-26T20:12:54.268Z,8.70
2022-12-26T20:15:24.399Z,8.60
2022-12-26T20:17:53.821Z,8.60
2022-12-26T20:20:23.294Z,8.60
2022-12-26T20:22:53.379Z,8.60
2022-12-26T20:25:22.142Z,8.60
2022-12-26T20:27:50.918Z,8.60
2022-12-26T20:30:20.208Z,8.60
2022-12-26T20:32:51.052Z,8.60
2022-12-26T20:35:20.113Z,8.60
2022-12-26T20:37:48.816Z,8.70
2022-12-26T20:40:18.114Z,8.70
2022-12-26T20:42:46.838Z,8.70
2022-12-26T20:45:15.949Z,8.70
2022-12-26T20:47:45.234Z,8.70
2022-12-26T20:50:17.609Z,8.70
2022-12-26T20:52:46.773Z,8.70
2022-12-26T20:55:17.064Z,8.60
2022-12-26T20:57:46.326Z,8.60
2022-12-26T21:00:16.348Z,8.70
2022-12-26T21:02:45.676Z,8.60
2022-12-26T21:05:16.576Z,8.60
2022-12-26T21:07:45.762Z,8.60
2022-12-26T21:10:15.279Z,8.60
2022-12-26T21:12:44.526Z,8.60
2022-12-26T21:15:13.648Z,8.60
2022-12-26T21:17:42.685Z,8.60
2022-12-26T21:20:14.101Z,8.60
2022-12-26T21:22:45.297Z,8.60
2022-12-26T21:25:14.420Z,8.60
2022-12-26T21:27:45.603Z,8.60
2022-12-26T21:30:18.986Z,8.70
2022-12-26T21:32:48.519Z,8.70
2022-12-26T21:35:18.051Z,8.70
2022-12-26T21:37:52.350Z,8.70
2022-12-26T21:40:23.723Z,8.60
2022-12-26T21:42:52.924Z,8.50
2022-12-26T21:45:21.813Z,8.50
2022-12-26T21:47:50.979Z,8.40
2022-12-26T21:50:20.323Z,8.50
2022-12-26T21:52:51.092Z,8.50
2022-12-26T21:55:27.763Z,8.50
2022-12-26T21:57:58.216Z,8.50
2022-12-26T22:00:27.715Z,8.50
2022-12-26T22:03:13.651Z,8.50
2022-12-26T22:05:44.207Z,8.50
2022-12-26T22:08:15.360Z,8.40
2022-12-26T22:11:04.294Z,8.40
2022-12-26T22:13:40.546Z,8.50
2022-12-26T22:16:16.393Z,8.40
2022-12-26T22:18:47.461Z,8.50
2022-12-26T22:21:18.152Z,8.40
2022-12-26T22:23:51.027Z,8.40
2022-12-26T22:26:21.427Z,8.40
2022-12-26T22:28:50.572Z,8.40
2022-12-26T22:31:21.980Z,8.40
2022-12-26T22:33:56.534Z,8.50
2022-12-26T22:36:26.383Z,8.50
2022-12-26T22:38:57.088Z,8.50
2022-12-26T22:41:26.245Z,8.50
2022-12-26T22:43:57.685Z,8.50
2022-12-26T22:46:26.819Z,8.50
2022-12-26T22:48:55.909Z,8.40
2022-12-26T22:51:27.173Z,8.40
2022-12-26T22:53:59.440Z,8.40
2022-12-26T22:56:29.024Z,8.30
2022-12-26T22:59:00.725Z,8.40
2022-12-26T23:01:30.429Z,8.40
2022-12-26T23:04:01.331Z,8.40
2022-12-26T23:06:32.598Z,8.30
2022-12-26T23:09:08.692Z,8.30
2022-12-26T23:11:38.183Z,8.30
2022-12-26T23:14:09.667Z,8.30
2022-12-26T23:16:43.947Z,8.20
2022-12-26T23:19:34.147Z,8.20
2022-12-26T23:22:05.160Z,8.20
2022-12-26T23:24:35.924Z,8.20
2022-12-26T23:27:20.786Z,8.20
2022-12-26T23:30:07.632Z,8.20
2022-12-26T23:32:37.688Z,8.20
2022-12-26T23:35:07.978Z,8.10
2022-12-26T23:37:37.387Z,8.10
2022-12-26T23:40:10.239Z,8.00
2022-12-26T23:42:39.534Z,8.00
2022-12-26T23:45:10.390Z,7.90
2022-12-26T23:47:40.076Z,7.80
2022-12-26T23:50:11.816Z,7.60
2022-12-26T23:52:40.965Z,7.60
2022-12-26T23:55:12.331Z,7.40
2022-12-26T23:57:41.362Z,7.30
